sensor_id;sensor_type;location;lat;lon;timestamp;temperature;humidity
41324;DHT22;27073;51.128;4.220;2022-09-13T00:00:48;22.50;99.90
41324;DHT22;27073;51.128;4.220;2022-09-13T00:03:14;22.60;99.90
41324;DHT22;27073;51.128;4.220;2022-09-13T00:05:40;22.40;99.90
41324;DHT22;27073;51.128;4.220;2022-09-13T00:08:06;22.00;99.90
41324;DHT22;27073;51.128;4.220;2022-09-13T00:10:34;22.10;99.90
41324;DHT22;27073;51.128;4.220;2022-09-13T00:13:03;22.30;99.90
41324;DHT22;27073;51.128;4.220;2022-09-13T00:15:29;22.40;99.90
41324;DHT22;27073;51.128;4.220;2022-09-13T00:17:54;22.50;99.90
41324;DHT22;27073;51.128;4.220;2022-09-13T00:20:20;22.60;99.90
41324;DHT22;27073;51.128;4.220;2022-09-13T00:22:46;22.60;99.90
41324;DHT22;27073;51.128;4.220;2022-09-13T00:25:12;22.70;99.90
41324;DHT22;27073;51.128;4.220;2022-09-13T00:27:37;22.70;99.90
41324;DHT22;27073;51.128;4.220;2022-09-13T00:30:04;22.70;99.90
41324;DHT22;27073;51.128;4.220;2022-09-13T00:32:31;22.70;99.90
41324;DHT22;27073;51.128;4.220;2022-09-13T00:34:57;22.70;99.90
41324;DHT22;27073;51.128;4.220;2022-09-13T00:37:23;22.70;99.90
41324;DHT22;27073;51.128;4.220;2022-09-13T00:39:49;22.70;99.90
41324;DHT22;27073;51.128;4.220;2022-09-13T00:42:15;22.70;99.90
41324;DHT22;27073;51.128;4.220;2022-09-13T00:47:42;22.70;99.90
41324;DHT22;27073;51.128;4.220;2022-09-13T00:50:13;22.60;99.90
41324;DHT22;27073;51.128;4.220;2022-09-13T00:52:44;22.50;99.90
41324;DHT22;27073;51.128;4.220;2022-09-13T00:55:17;22.50;99.90
41324;DHT22;27073;51.128;4.220;2022-09-13T00:57:43;22.40;99.90
41324;DHT22;27073;51.128;4.220;2022-09-13T01:00:16;22.50;99.90
41324;DHT22;27073;51.128;4.220;2022-09-13T01:02:57;22.40;99.90
41324;DHT22;27073;51.128;4.220;2022-09-13T01:05:29;22.20;99.90
41324;DHT22;27073;51.128;4.220;2022-09-13T01:07:58;22.30;99.90
41324;DHT22;27073;51.128;4.220;2022-09-13T01:10:24;22.30;99.90
41324;DHT22;27073;51.128;4.220;2022-09-13T01:12:58;22.30;99.90
41324;DHT22;27073;51.128;4.220;2022-09-13T01:15:26;22.40;99.90
41324;DHT22;27073;51.128;4.220;2022-09-13T01:17:53;22.40;99.90
41324;DHT22;27073;51.128;4.220;2022-09-13T01:20:20;22.40;99.90
41324;DHT22;27073;51.128;4.220;2022-09-13T01:34:17;22.40;99.90
41324;DHT22;27073;51.128;4.220;2022-09-13T01:39:55;22.50;99.90
41324;DHT22;27073;51.128;4.220;2022-09-13T01:48:26;22.40;99.90
41324;DHT22;27073;51.128;4.220;2022-09-13T02:01:20;22.40;99.90
41324;DHT22;27073;51.128;4.220;2022-09-13T02:04:14;22.40;99.90
41324;DHT22;27073;51.128;4.220;2022-09-13T02:07:09;22.40;99.90
41324;DHT22;27073;51.128;4.220;2022-09-13T02:09:47;22.30;99.90
41324;DHT22;27073;51.128;4.220;2022-09-13T02:12:19;22.30;99.90
41324;DHT22;27073;51.128;4.220;2022-09-13T02:14:53;22.30;99.90
41324;DHT22;27073;51.128;4.220;2022-09-13T02:17:23;22.30;99.90
41324;DHT22;27073;51.128;4.220;2022-09-13T02:20:01;22.30;99.90
41324;DHT22;27073;51.128;4.220;2022-09-13T02:22:34;22.20;99.90
41324;DHT22;27073;51.128;4.220;2022-09-13T02:25:08;22.20;99.90
41324;DHT22;27073;51.128;4.220;2022-09-13T02:27:36;22.20;99.90
41324;DHT22;27073;51.128;4.220;2022-09-13T02:30:06;22.20;99.90
41324;DHT22;27073;51.128;4.220;2022-09-13T02:32:47;22.10;99.90
41324;DHT22;27073;51.128;4.220;2022-09-13T02:37:57;22.10;99.90
41324;DHT22;27073;51.128;4.220;2022-09-13T02:40:27;22.20;99.90
41324;DHT22;27073;51.128;4.220;2022-09-13T02:43:15;22.20;99.90
41324;DHT22;27073;51.128;4.220;2022-09-13T02:46:05;22.20;99.90
41324;DHT22;27073;51.128;4.220;2022-09-13T02:48:57;22.20;99.90
41324;DHT22;27073;51.128;4.220;2022-09-13T02:54:03;22.20;99.90
41324;DHT22;27073;51.128;4.220;2022-09-13T02:56:50;22.20;99.90
41324;DHT22;27073;51.128;4.220;2022-09-13T02:59:21;22.10;99.90
41324;DHT22;27073;51.128;4.220;2022-09-13T03:04:28;21.20;99.90
41324;DHT22;27073;51.128;4.220;2022-09-13T03:06:54;21.10;99.90
41324;DHT22;27073;51.128;4.220;2022-09-13T03:09:20;21.00;99.90
41324;DHT22;27073;51.128;4.220;2022-09-13T03:17:28;20.70;99.90
41324;DHT22;27073;51.128;4.220;2022-09-13T03:20:10;20.60;99.90
41324;DHT22;27073;51.128;4.220;2022-09-13T03:31:09;20.90;99.90
41324;DHT22;27073;51.128;4.220;2022-09-13T03:33:45;21.10;99.90
41324;DHT22;27073;51.128;4.220;2022-09-13T03:39:07;21.30;99.90
41324;DHT22;27073;51.128;4.220;2022-09-13T03:41:41;21.30;99.90
41324;DHT22;27073;51.128;4.220;2022-09-13T03:44:11;21.50;99.90
41324;DHT22;27073;51.128;4.220;2022-09-13T03:46:45;21.60;99.90
41324;DHT22;27073;51.128;4.220;2022-09-13T03:49:16;21.70;99.90
41324;DHT22;27073;51.128;4.220;2022-09-13T03:51:45;21.90;99.90
41324;DHT22;27073;51.128;4.220;2022-09-13T03:54:21;22.00;99.90
41324;DHT22;27073;51.128;4.220;2022-09-13T03:59:33;21.50;99.90
41324;DHT22;27073;51.128;4.220;2022-09-13T04:02:02;21.60;99.90
41324;DHT22;27073;51.128;4.220;2022-09-13T04:04:27;21.70;99.90
41324;DHT22;27073;51.128;4.220;2022-09-13T04:06:53;21.60;99.90
41324;DHT22;27073;51.128;4.220;2022-09-13T04:09:21;21.50;99.90
41324;DHT22;27073;51.128;4.220;2022-09-13T04:11:47;21.50;99.90
41324;DHT22;27073;51.128;4.220;2022-09-13T04:14:13;21.60;99.90
41324;DHT22;27073;51.128;4.220;2022-09-13T04:16:40;21.70;99.90
41324;DHT22;27073;51.128;4.220;2022-09-13T04:19:07;21.80;99.90
41324;DHT22;27073;51.128;4.220;2022-09-13T04:21:33;21.90;99.90
41324;DHT22;27073;51.128;4.220;2022-09-13T04:23:59;21.90;99.90
41324;DHT22;27073;51.128;4.220;2022-09-13T04:26:25;22.00;99.90
41324;DHT22;27073;51.128;4.220;2022-09-13T04:28:52;22.00;99.90
41324;DHT22;27073;51.128;4.220;2022-09-13T04:31:18;22.10;99.90
41324;DHT22;27073;51.128;4.220;2022-09-13T04:33:43;22.00;99.90
41324;DHT22;27073;51.128;4.220;2022-09-13T04:36:09;22.10;99.90
41324;DHT22;27073;51.128;4.220;2022-09-13T04:38:35;22.10;99.90
41324;DHT22;27073;51.128;4.220;2022-09-13T04:41:02;22.10;99.90
41324;DHT22;27073;51.128;4.220;2022-09-13T04:43:28;22.10;99.90
41324;DHT22;27073;51.128;4.220;2022-09-13T04:45:54;22.10;99.90
41324;DHT22;27073;51.128;4.220;2022-09-13T04:48:23;22.00;99.90
41324;DHT22;27073;51.128;4.220;2022-09-13T04:50:49;21.80;99.90
41324;DHT22;27073;51.128;4.220;2022-09-13T04:53:15;21.40;99.90
41324;DHT22;27073;51.128;4.220;2022-09-13T04:55:40;21.10;99.90
41324;DHT22;27073;51.128;4.220;2022-09-13T04:58:06;21.20;99.90
41324;DHT22;27073;51.128;4.220;2022-09-13T05:00:32;21.30;99.90
41324;DHT22;27073;51.128;4.220;2022-09-13T05:02:58;21.40;99.90
41324;DHT22;27073;51.128;4.220;2022-09-13T05:05:24;21.40;99.90
41324;DHT22;27073;51.128;4.220;2022-09-13T05:07:54;21.40;99.90
41324;DHT22;27073;51.128;4.220;2022-09-13T05:10:20;21.40;99.90
41324;DHT22;27073;51.128;4.220;2022-09-13T05:12:46;21.30;99.90
41324;DHT22;27073;51.128;4.220;2022-09-13T05:15:12;21.30;99.90
41324;DHT22;27073;51.128;4.220;2022-09-13T05:17:38;21.40;99.90
41324;DHT22;27073;51.128;4.220;2022-09-13T05:20:04;21.00;99.90
41324;DHT22;27073;51.128;4.220;2022-09-13T05:22:30;21.30;99.90
41324;DHT22;27073;51.128;4.220;2022-09-13T05:24:56;21.50;99.90
41324;DHT22;27073;51.128;4.220;2022-09-13T05:27:22;21.60;99.90
41324;DHT22;27073;51.128;4.220;2022-09-13T05:29:47;21.70;99.90
41324;DHT22;27073;51.128;4.220;2022-09-13T05:32:13;21.60;99.90
41324;DHT22;27073;51.128;4.220;2022-09-13T05:34:39;21.70;99.90
41324;DHT22;27073;51.128;4.220;2022-09-13T05:37:05;21.70;99.90
41324;DHT22;27073;51.128;4.220;2022-09-13T05:39:31;21.50;99.90
41324;DHT22;27073;51.128;4.220;2022-09-13T05:41:56;21.20;99.90
41324;DHT22;27073;51.128;4.220;2022-09-13T05:44:22;20.70;99.90
41324;DHT22;27073;51.128;4.220;2022-09-13T05:46:48;21.00;99.90
41324;DHT22;27073;51.128;4.220;2022-09-13T05:49:14;21.00;99.90
41324;DHT22;27073;51.128;4.220;2022-09-13T05:51:40;21.10;99.90
41324;DHT22;27073;51.128;4.220;2022-09-13T05:54:06;21.20;99.90
41324;DHT22;27073;51.128;4.220;2022-09-13T05:56:31;20.90;99.90
41324;DHT22;27073;51.128;4.220;2022-09-13T05:58:57;21.10;99.90
41324;DHT22;27073;51.128;4.220;2022-09-13T06:01:25;21.40;99.90
41324;DHT22;27073;51.128;4.220;2022-09-13T06:03:54;21.40;99.90
41324;DHT22;27073;51.128;4.220;2022-09-13T06:06:21;21.50;99.90
41324;DHT22;27073;51.128;4.220;2022-09-13T06:08:47;21.60;99.90
41324;DHT22;27073;51.128;4.220;2022-09-13T06:11:13;21.30;99.90
41324;DHT22;27073;51.128;4.220;2022-09-13T06:13:40;20.90;99.90
41324;DHT22;27073;51.128;4.220;2022-09-13T06:16:11;21.10;99.90
41324;DHT22;27073;51.128;4.220;2022-09-13T06:18:38;20.90;99.90
41324;DHT22;27073;51.128;4.220;2022-09-13T06:21:10;21.20;99.90
41324;DHT22;27073;51.128;4.220;2022-09-13T06:23:36;21.20;99.90
41324;DHT22;27073;51.128;4.220;2022-09-13T06:26:10;21.20;99.90
41324;DHT22;27073;51.128;4.220;2022-09-13T06:28:37;21.20;99.90
41324;DHT22;27073;51.128;4.220;2022-09-13T06:31:07;21.00;99.90
41324;DHT22;27073;51.128;4.220;2022-09-13T06:33:35;21.20;99.90
41324;DHT22;27073;51.128;4.220;2022-09-13T06:36:02;21.40;99.90
41324;DHT22;27073;51.128;4.220;2022-09-13T06:38:28;21.10;99.90
41324;DHT22;27073;51.128;4.220;2022-09-13T06:41:09;21.10;99.90
41324;DHT22;27073;51.128;4.220;2022-09-13T06:43:35;21.50;99.90
41324;DHT22;27073;51.128;4.220;2022-09-13T06:46:03;21.60;99.90
41324;DHT22;27073;51.128;4.220;2022-09-13T06:48:35;21.90;99.90
41324;DHT22;27073;51.128;4.220;2022-09-13T06:51:04;22.10;99.90
41324;DHT22;27073;51.128;4.220;2022-09-13T06:53:30;22.10;99.90
41324;DHT22;27073;51.128;4.220;2022-09-13T06:56:06;22.10;99.90
41324;DHT22;27073;51.128;4.220;2022-09-13T06:58:34;21.70;99.90
41324;DHT22;27073;51.128;4.220;2022-09-13T07:01:12;21.80;99.90
41324;DHT22;27073;51.128;4.220;2022-09-13T07:03:40;21.80;99.90
41324;DHT22;27073;51.128;4.220;2022-09-13T07:06:14;22.10;99.90
41324;DHT22;27073;51.128;4.220;2022-09-13T07:08:41;22.30;99.90
41324;DHT22;27073;51.128;4.220;2022-09-13T07:11:10;22.40;99.90
41324;DHT22;27073;51.128;4.220;2022-09-13T07:13:36;22.50;99.90
41324;DHT22;27073;51.128;4.220;2022-09-13T07:16:03;22.60;99.90
41324;DHT22;27073;51.128;4.220;2022-09-13T07:18:30;22.70;99.90
41324;DHT22;27073;51.128;4.220;2022-09-13T07:21:04;22.70;99.90
41324;DHT22;27073;51.128;4.220;2022-09-13T07:23:32;22.80;99.90
41324;DHT22;27073;51.128;4.220;2022-09-13T07:25:59;22.90;99.90
41324;DHT22;27073;51.128;4.220;2022-09-13T07:28:39;22.80;99.90
41324;DHT22;27073;51.128;4.220;2022-09-13T07:31:20;22.90;99.90
41324;DHT22;27073;51.128;4.220;2022-09-13T07:33:54;22.90;99.90
41324;DHT22;27073;51.128;4.220;2022-09-13T07:36:22;22.90;99.90
41324;DHT22;27073;51.128;4.220;2022-09-13T07:38:48;23.00;99.90
41324;DHT22;27073;51.128;4.220;2022-09-13T07:41:16;23.10;99.90
41324;DHT22;27073;51.128;4.220;2022-09-13T07:43:43;23.10;99.90
41324;DHT22;27073;51.128;4.220;2022-09-13T07:46:12;23.20;99.90
41324;DHT22;27073;51.128;4.220;2022-09-13T07:48:41;23.30;99.90
41324;DHT22;27073;51.128;4.220;2022-09-13T07:51:09;23.40;99.90
41324;DHT22;27073;51.128;4.220;2022-09-13T07:53:37;23.50;99.90
41324;DHT22;27073;51.128;4.220;2022-09-13T07:56:11;23.60;99.90
41324;DHT22;27073;51.128;4.220;2022-09-13T07:58:39;23.50;99.90
41324;DHT22;27073;51.128;4.220;2022-09-13T08:03:58;23.70;99.90
41324;DHT22;27073;51.128;4.220;2022-09-13T08:06:26;23.70;99.90
41324;DHT22;27073;51.128;4.220;2022-09-13T08:08:52;23.70;99.90
41324;DHT22;27073;51.128;4.220;2022-09-13T08:11:30;23.80;99.90
41324;DHT22;27073;51.128;4.220;2022-09-13T08:13:57;23.70;99.90
41324;DHT22;27073;51.128;4.220;2022-09-13T08:16:24;23.80;99.90
41324;DHT22;27073;51.128;4.220;2022-09-13T08:18:52;23.70;99.90
41324;DHT22;27073;51.128;4.220;2022-09-13T08:21:18;23.90;99.90
41324;DHT22;27073;51.128;4.220;2022-09-13T08:23:45;23.90;99.90
41324;DHT22;27073;51.128;4.220;2022-09-13T08:26:12;23.80;99.90
41324;DHT22;27073;51.128;4.220;2022-09-13T08:28:40;23.80;99.90
41324;DHT22;27073;51.128;4.220;2022-09-13T08:31:13;24.00;99.90
41324;DHT22;27073;51.128;4.220;2022-09-13T08:33:46;24.00;99.90
41324;DHT22;27073;51.128;4.220;2022-09-13T08:36:16;23.90;99.90
41324;DHT22;27073;51.128;4.220;2022-09-13T08:38:53;24.00;99.90
41324;DHT22;27073;51.128;4.220;2022-09-13T08:41:46;24.10;99.90
41324;DHT22;27073;51.128;4.220;2022-09-13T08:44:35;24.20;99.90
41324;DHT22;27073;51.128;4.220;2022-09-13T08:47:27;24.40;99.90
41324;DHT22;27073;51.128;4.220;2022-09-13T08:53:23;24.60;99.90
41324;DHT22;27073;51.128;4.220;2022-09-13T09:01:35;24.70;99.90
41324;DHT22;27073;51.128;4.220;2022-09-13T09:09:25;24.50;99.90
41324;DHT22;27073;51.128;4.220;2022-09-13T09:14:44;24.70;99.90
41324;DHT22;27073;51.128;4.220;2022-09-13T09:17:17;24.80;99.90
41324;DHT22;27073;51.128;4.220;2022-09-13T09:19:48;24.90;99.90
41324;DHT22;27073;51.128;4.220;2022-09-13T09:22:20;25.10;99.90
41324;DHT22;27073;51.128;4.220;2022-09-13T09:24:53;24.80;99.90
41324;DHT22;27073;51.128;4.220;2022-09-13T09:27:20;24.90;99.90
41324;DHT22;27073;51.128;4.220;2022-09-13T09:29:51;24.70;99.90
41324;DHT22;27073;51.128;4.220;2022-09-13T09:35:26;24.50;99.90
41324;DHT22;27073;51.128;4.220;2022-09-13T09:40:51;24.90;99.90
41324;DHT22;27073;51.128;4.220;2022-09-13T09:43:31;25.00;99.90
41324;DHT22;27073;51.128;4.220;2022-09-13T09:46:00;25.20;99.90
41324;DHT22;27073;51.128;4.220;2022-09-13T09:48:31;25.10;99.90
41324;DHT22;27073;51.128;4.220;2022-09-13T09:51:01;25.20;99.90
41324;DHT22;27073;51.128;4.220;2022-09-13T09:53:36;25.00;99.90
41324;DHT22;27073;51.128;4.220;2022-09-13T09:56:24;25.00;99.90
41324;DHT22;27073;51.128;4.220;2022-09-13T09:58:51;24.80;99.90
41324;DHT22;27073;51.128;4.220;2022-09-13T10:01:26;24.70;99.90
41324;DHT22;27073;51.128;4.220;2022-09-13T10:03:56;24.80;99.90
41324;DHT22;27073;51.128;4.220;2022-09-13T10:06:26;25.00;99.90
41324;DHT22;27073;51.128;4.220;2022-09-13T10:08:56;25.10;99.90
41324;DHT22;27073;51.128;4.220;2022-09-13T10:11:23;25.30;99.90
41324;DHT22;27073;51.128;4.220;2022-09-13T10:13:59;25.30;99.90
41324;DHT22;27073;51.128;4.220;2022-09-13T10:16:28;25.30;99.90
41324;DHT22;27073;51.128;4.220;2022-09-13T10:19:22;25.30;99.90
41324;DHT22;27073;51.128;4.220;2022-09-13T10:22:11;25.50;99.90
41324;DHT22;27073;51.128;4.220;2022-09-13T10:24:38;25.60;99.90
41324;DHT22;27073;51.128;4.220;2022-09-13T10:27:19;25.80;99.90
41324;DHT22;27073;51.128;4.220;2022-09-13T10:29:51;26.00;99.90
41324;DHT22;27073;51.128;4.220;2022-09-13T10:32:20;26.10;99.90
41324;DHT22;27073;51.128;4.220;2022-09-13T10:34:47;26.30;99.90
41324;DHT22;27073;51.128;4.220;2022-09-13T10:37:21;26.30;99.90
41324;DHT22;27073;51.128;4.220;2022-09-13T10:42:50;26.60;99.90
41324;DHT22;27073;51.128;4.220;2022-09-13T10:45:23;26.50;99.90
41324;DHT22;27073;51.128;4.220;2022-09-13T10:47:54;26.50;99.90
41324;DHT22;27073;51.128;4.220;2022-09-13T10:50:26;26.70;99.90
41324;DHT22;27073;51.128;4.220;2022-09-13T10:52:53;27.00;99.90
41324;DHT22;27073;51.128;4.220;2022-09-13T10:55:27;27.10;99.90
41324;DHT22;27073;51.128;4.220;2022-09-13T11:03:53;26.70;99.90
41324;DHT22;27073;51.128;4.220;2022-09-13T11:06:45;26.70;99.90
41324;DHT22;27073;51.128;4.220;2022-09-13T11:26:41;26.90;99.90
41324;DHT22;27073;51.128;4.220;2022-09-13T11:28:54;26.90;99.90
41324;DHT22;27073;51.128;4.220;2022-09-13T11:31:41;26.90;99.90
41324;DHT22;27073;51.128;4.220;2022-09-13T11:42:31;27.40;99.90
41324;DHT22;27073;51.128;4.220;2022-09-13T11:45:17;27.70;99.90
41324;DHT22;27073;51.128;4.220;2022-09-13T11:48:31;27.70;99.90
41324;DHT22;27073;51.128;4.220;2022-09-13T11:56:32;28.20;98.40
41324;DHT22;27073;51.128;4.220;2022-09-13T12:01:45;27.80;99.30
41324;DHT22;27073;51.128;4.220;2022-09-13T12:04:21;27.90;98.10
41324;DHT22;27073;51.128;4.220;2022-09-13T12:06:54;27.50;99.00
41324;DHT22;27073;51.128;4.220;2022-09-13T12:09:31;27.70;99.40
41324;DHT22;27073;51.128;4.220;2022-09-13T12:12:14;27.80;99.30
41324;DHT22;27073;51.128;4.220;2022-09-13T12:14:49;27.90;98.50
41324;DHT22;27073;51.128;4.220;2022-09-13T12:17:29;27.80;98.40
41324;DHT22;27073;51.128;4.220;2022-09-13T12:19:57;27.70;98.40
41324;DHT22;27073;51.128;4.220;2022-09-13T12:22:29;27.80;98.30
41324;DHT22;27073;51.128;4.220;2022-09-13T12:25:02;27.70;98.60
41324;DHT22;27073;51.128;4.220;2022-09-13T12:30:36;27.80;98.40
41324;DHT22;27073;51.128;4.220;2022-09-13T12:33:05;27.00;98.40
41324;DHT22;27073;51.128;4.220;2022-09-13T12:35:37;27.30;99.00
41324;DHT22;27073;51.128;4.220;2022-09-13T12:38:12;27.50;99.10
41324;DHT22;27073;51.128;4.220;2022-09-13T13:01:16;26.40;99.50
41324;DHT22;27073;51.128;4.220;2022-09-13T13:06:27;26.20;99.90
41324;DHT22;27073;51.128;4.220;2022-09-13T13:08:56;26.30;99.90
41324;DHT22;27073;51.128;4.220;2022-09-13T13:11:24;26.50;99.90
41324;DHT22;27073;51.128;4.220;2022-09-13T13:13:59;26.20;99.90
41324;DHT22;27073;51.128;4.220;2022-09-13T13:16:35;26.20;99.90
41324;DHT22;27073;51.128;4.220;2022-09-13T13:19:29;26.40;99.90
41324;DHT22;27073;51.128;4.220;2022-09-13T13:27:57;26.40;99.90
41324;DHT22;27073;51.128;4.220;2022-09-13T13:30:37;26.30;99.90
41324;DHT22;27073;51.128;4.220;2022-09-13T13:33:19;26.10;99.90
41324;DHT22;27073;51.128;4.220;2022-09-13T13:35:45;26.20;99.90
41324;DHT22;27073;51.128;4.220;2022-09-13T13:40:41;25.80;99.90
41324;DHT22;27073;51.128;4.220;2022-09-13T13:43:35;25.60;99.90
41324;DHT22;27073;51.128;4.220;2022-09-13T13:48:39;25.80;99.90
41324;DHT22;27073;51.128;4.220;2022-09-13T13:51:20;25.80;99.90
41324;DHT22;27073;51.128;4.220;2022-09-13T13:53:50;25.60;99.90
41324;DHT22;27073;51.128;4.220;2022-09-13T13:56:18;25.80;99.90
41324;DHT22;27073;51.128;4.220;2022-09-13T13:59:08;25.80;99.90
41324;DHT22;27073;51.128;4.220;2022-09-13T14:01:38;25.80;99.90
41324;DHT22;27073;51.128;4.220;2022-09-13T14:09:37;25.40;99.90
41324;DHT22;27073;51.128;4.220;2022-09-13T14:12:19;25.10;99.90
41324;DHT22;27073;51.128;4.220;2022-09-13T14:15:13;25.00;99.90
41324;DHT22;27073;51.128;4.220;2022-09-13T14:20:59;25.00;99.90
41324;DHT22;27073;51.128;4.220;2022-09-13T14:23:25;25.00;99.90
41324;DHT22;27073;51.128;4.220;2022-09-13T14:25:56;24.80;99.90
41324;DHT22;27073;51.128;4.220;2022-09-13T14:28:23;24.90;99.90
41324;DHT22;27073;51.128;4.220;2022-09-13T14:30:58;24.70;99.90
41324;DHT22;27073;51.128;4.220;2022-09-13T14:33:35;24.60;99.90
41324;DHT22;27073;51.128;4.220;2022-09-13T14:36:22;24.40;99.90
41324;DHT22;27073;51.128;4.220;2022-09-13T14:38:55;24.20;99.90
41324;DHT22;27073;51.128;4.220;2022-09-13T14:41:32;24.00;99.90
41324;DHT22;27073;51.128;4.220;2022-09-13T14:44:20;24.00;99.90
41324;DHT22;27073;51.128;4.220;2022-09-13T14:46:54;24.30;99.90
41324;DHT22;27073;51.128;4.220;2022-09-13T14:49:51;24.40;99.90
41324;DHT22;27073;51.128;4.220;2022-09-13T14:52:33;24.50;99.90
41324;DHT22;27073;51.128;4.220;2022-09-13T14:55:07;24.70;99.90
41324;DHT22;27073;51.128;4.220;2022-09-13T14:57:39;24.80;99.90
41324;DHT22;27073;51.128;4.220;2022-09-13T15:00:18;24.90;99.90
41324;DHT22;27073;51.128;4.220;2022-09-13T15:02:49;25.00;99.90
41324;DHT22;27073;51.128;4.220;2022-09-13T15:05:19;25.00;99.90
41324;DHT22;27073;51.128;4.220;2022-09-13T15:07:45;25.00;99.90
41324;DHT22;27073;51.128;4.220;2022-09-13T15:12:48;25.00;99.90
41324;DHT22;27073;51.128;4.220;2022-09-13T15:23:38;24.80;99.90
41324;DHT22;27073;51.128;4.220;2022-09-13T15:26:19;24.80;99.90
41324;DHT22;27073;51.128;4.220;2022-09-13T15:31:22;24.90;99.90
41324;DHT22;27073;51.128;4.220;2022-09-13T15:33:48;24.90;99.90
41324;DHT22;27073;51.128;4.220;2022-09-13T15:36:34;24.90;99.90
41324;DHT22;27073;51.128;4.220;2022-09-13T15:41:37;24.80;99.90
41324;DHT22;27073;51.128;4.220;2022-09-13T15:44:08;24.80;99.90
41324;DHT22;27073;51.128;4.220;2022-09-13T15:46:46;24.50;99.90
41324;DHT22;27073;51.128;4.220;2022-09-13T15:49:15;24.60;99.90
41324;DHT22;27073;51.128;4.220;2022-09-13T15:51:43;24.50;99.90
41324;DHT22;27073;51.128;4.220;2022-09-13T15:54:16;24.60;99.90
41324;DHT22;27073;51.128;4.220;2022-09-13T15:56:45;24.50;99.90
41324;DHT22;27073;51.128;4.220;2022-09-13T15:59:17;24.60;99.90
41324;DHT22;27073;51.128;4.220;2022-09-13T16:01:44;24.60;99.90
41324;DHT22;27073;51.128;4.220;2022-09-13T16:04:10;24.70;99.90
41324;DHT22;27073;51.128;4.220;2022-09-13T16:06:36;24.70;99.90
41324;DHT22;27073;51.128;4.220;2022-09-13T16:09:17;24.70;99.90
41324;DHT22;27073;51.128;4.220;2022-09-13T16:11:44;24.70;99.90
41324;DHT22;27073;51.128;4.220;2022-09-13T16:14:10;24.60;99.90
41324;DHT22;27073;51.128;4.220;2022-09-13T16:16:37;24.50;99.90
41324;DHT22;27073;51.128;4.220;2022-09-13T16:19:09;24.40;99.90
41324;DHT22;27073;51.128;4.220;2022-09-13T16:21:37;24.50;99.90
41324;DHT22;27073;51.128;4.220;2022-09-13T16:24:03;24.10;99.90
41324;DHT22;27073;51.128;4.220;2022-09-13T16:26:29;24.20;99.90
41324;DHT22;27073;51.128;4.220;2022-09-13T16:28:56;24.20;99.90
41324;DHT22;27073;51.128;4.220;2022-09-13T16:31:21;24.00;99.90
41324;DHT22;27073;51.128;4.220;2022-09-13T16:33:47;23.90;99.90
41324;DHT22;27073;51.128;4.220;2022-09-13T16:36:12;23.80;99.90
41324;DHT22;27073;51.128;4.220;2022-09-13T16:38:38;23.80;99.90
41324;DHT22;27073;51.128;4.220;2022-09-13T16:41:04;23.60;99.90
41324;DHT22;27073;51.128;4.220;2022-09-13T16:43:30;23.60;99.90
41324;DHT22;27073;51.128;4.220;2022-09-13T16:45:58;23.60;99.90
41324;DHT22;27073;51.128;4.220;2022-09-13T16:48:24;23.70;99.90
41324;DHT22;27073;51.128;4.220;2022-09-13T16:50:50;23.80;99.90
41324;DHT22;27073;51.128;4.220;2022-09-13T16:53:16;23.80;99.90
41324;DHT22;27073;51.128;4.220;2022-09-13T16:55:42;23.80;99.90
41324;DHT22;27073;51.128;4.220;2022-09-13T16:58:10;23.80;99.90
41324;DHT22;27073;51.128;4.220;2022-09-13T17:00:36;23.70;99.90
41324;DHT22;27073;51.128;4.220;2022-09-13T17:03:01;23.60;99.90
41324;DHT22;27073;51.128;4.220;2022-09-13T17:05:27;23.50;99.90
41324;DHT22;27073;51.128;4.220;2022-09-13T17:07:53;23.40;99.90
41324;DHT22;27073;51.128;4.220;2022-09-13T17:10:19;23.50;99.90
41324;DHT22;27073;51.128;4.220;2022-09-13T17:12:45;23.50;99.90
41324;DHT22;27073;51.128;4.220;2022-09-13T17:15:11;23.50;99.90
41324;DHT22;27073;51.128;4.220;2022-09-13T17:17:37;23.50;99.90
41324;DHT22;27073;51.128;4.220;2022-09-13T17:20:05;23.50;99.90
41324;DHT22;27073;51.128;4.220;2022-09-13T17:22:33;23.50;99.90
41324;DHT22;27073;51.128;4.220;2022-09-13T17:24:59;23.50;99.90
41324;DHT22;27073;51.128;4.220;2022-09-13T17:27:26;23.30;99.90
41324;DHT22;27073;51.128;4.220;2022-09-13T17:29:51;23.30;99.90
41324;DHT22;27073;51.128;4.220;2022-09-13T17:32:18;23.20;99.90
41324;DHT22;27073;51.128;4.220;2022-09-13T17:34:44;23.20;99.90
41324;DHT22;27073;51.128;4.220;2022-09-13T17:37:10;23.20;99.90
41324;DHT22;27073;51.128;4.220;2022-09-13T17:39:36;23.10;99.90
41324;DHT22;27073;51.128;4.220;2022-09-13T17:42:01;23.00;99.90
41324;DHT22;27073;51.128;4.220;2022-09-13T17:44:27;23.00;99.90
41324;DHT22;27073;51.128;4.220;2022-09-13T17:46:53;22.90;99.90
41324;DHT22;27073;51.128;4.220;2022-09-13T17:49:19;22.70;99.90
41324;DHT22;27073;51.128;4.220;2022-09-13T17:51:44;22.70;99.90
41324;DHT22;27073;51.128;4.220;2022-09-13T17:54:11;22.60;99.90
41324;DHT22;27073;51.128;4.220;2022-09-13T17:56:44;22.70;99.90
41324;DHT22;27073;51.128;4.220;2022-09-13T17:59:12;22.70;99.90
41324;DHT22;27073;51.128;4.220;2022-09-13T18:01:41;22.70;99.90
41324;DHT22;27073;51.128;4.220;2022-09-13T18:04:09;22.70;99.90
41324;DHT22;27073;51.128;4.220;2022-09-13T18:06:35;22.80;99.90
41324;DHT22;27073;51.128;4.220;2022-09-13T18:09:02;22.70;99.90
41324;DHT22;27073;51.128;4.220;2022-09-13T18:11:28;22.70;99.90
41324;DHT22;27073;51.128;4.220;2022-09-13T18:13:53;22.70;99.90
41324;DHT22;27073;51.128;4.220;2022-09-13T18:16:23;22.70;99.90
41324;DHT22;27073;51.128;4.220;2022-09-13T18:18:50;22.70;99.90
41324;DHT22;27073;51.128;4.220;2022-09-13T18:21:18;22.70;99.90
41324;DHT22;27073;51.128;4.220;2022-09-13T18:23:49;22.70;99.90
41324;DHT22;27073;51.128;4.220;2022-09-13T18:26:18;22.70;99.90
41324;DHT22;27073;51.128;4.220;2022-09-13T18:28:44;22.70;99.90
41324;DHT22;27073;51.128;4.220;2022-09-13T18:31:15;22.70;99.90
41324;DHT22;27073;51.128;4.220;2022-09-13T18:33:42;22.80;99.90
41324;DHT22;27073;51.128;4.220;2022-09-13T18:36:14;22.80;99.90
41324;DHT22;27073;51.128;4.220;2022-09-13T18:38:45;22.80;99.90
41324;DHT22;27073;51.128;4.220;2022-09-13T18:41:20;22.70;99.90
41324;DHT22;27073;51.128;4.220;2022-09-13T18:43:48;22.80;99.90
41324;DHT22;27073;51.128;4.220;2022-09-13T18:46:16;22.70;99.90
41324;DHT22;27073;51.128;4.220;2022-09-13T18:48:47;22.70;99.90
41324;DHT22;27073;51.128;4.220;2022-09-13T18:51:18;22.60;99.90
41324;DHT22;27073;51.128;4.220;2022-09-13T18:53:45;22.50;99.90
41324;DHT22;27073;51.128;4.220;2022-09-13T18:56:13;22.50;99.90
41324;DHT22;27073;51.128;4.220;2022-09-13T18:58:40;22.50;99.90
41324;DHT22;27073;51.128;4.220;2022-09-13T19:01:09;22.50;99.90
41324;DHT22;27073;51.128;4.220;2022-09-13T19:03:36;22.40;99.90